createdAt,value
2019-06-08T00:01:22.897Z,85.60
2019-06-08T00:03:53.539Z,86.10
2019-06-08T00:06:23.188Z,86.00
2019-06-08T00:08:53.587Z,85.30
2019-06-08T00:11:23.549Z,85.90
2019-06-08T00:13:53.079Z,86.50
2019-06-08T00:16:23.862Z,86.90
2019-06-08T00:18:53.495Z,87.20
2019-06-08T00:21:24.107Z,87.90
2019-06-08T00:23:53.676Z,88.10
2019-06-08T00:26:24.279Z,87.80
2019-06-08T00:28:54.024Z,88.30
2019-06-08T00:31:23.500Z,88.70
2019-06-08T00:33:52.961Z,89.10
2019-06-08T00:36:23.000Z,89.60
2019-06-08T00:38:52.733Z,89.80
2019-06-08T00:41:23.591Z,90.00
2019-06-08T00:43:53.343Z,90.20
2019-06-08T00:46:23.869Z,90.70
2019-06-08T00:48:53.315Z,90.50
2019-06-08T00:51:23.129Z,89.80
2019-06-08T00:53:52.709Z,89.00
2019-06-08T00:56:22.195Z,89.00
2019-06-08T00:58:52.901Z,89.40
2019-06-08T01:01:24.606Z,89.60
2019-06-08T01:03:53.443Z,88.50
2019-06-08T01:06:23.048Z,87.90
2019-06-08T01:08:52.533Z,87.80
2019-06-08T01:11:22.560Z,84.50
2019-06-08T01:13:53.258Z,85.30
2019-06-08T01:16:22.924Z,85.90
2019-06-08T01:18:52.440Z,86.10
2019-06-08T01:21:21.931Z,89.00
2019-06-08T01:23:52.348Z,90.40
2019-06-08T01:26:22.348Z,90.60
2019-06-08T01:28:53.044Z,90.90
2019-06-08T01:31:22.575Z,90.80
2019-06-08T01:33:52.019Z,89.60
2019-06-08T01:36:22.689Z,89.10
2019-06-08T01:38:52.242Z,88.60
2019-06-08T01:41:21.780Z,88.70
2019-06-08T01:43:51.441Z,89.90
2019-06-08T01:46:21.833Z,90.50
2019-06-08T01:48:51.342Z,90.90
2019-06-08T01:51:20.886Z,91.20
2019-06-08T01:53:50.325Z,91.50
2019-06-08T01:56:19.980Z,91.40
2019-06-08T01:58:49.389Z,91.40
2019-06-08T02:01:18.916Z,91.80
2019-06-08T02:03:48.435Z,91.80
2019-06-08T02:06:17.934Z,91.60
2019-06-08T02:08:47.434Z,91.40
2019-06-08T02:11:16.884Z,91.30
2019-06-08T02:13:46.328Z,91.50
2019-06-08T02:16:15.859Z,91.70
2019-06-08T02:18:50.922Z,91.80
2019-06-08T02:21:16.629Z,92.80
2019-06-08T02:23:46.216Z,92.80
2019-06-08T02:26:16.657Z,91.40
2019-06-08T02:28:46.141Z,91.00
2019-06-08T02:31:15.675Z,89.90
2019-06-08T02:33:45.100Z,86.30
2019-06-08T02:36:14.642Z,84.00
2019-06-08T02:38:44.086Z,81.50
2019-06-08T02:41:13.528Z,79.50
2019-06-08T02:43:43.143Z,78.90
2019-06-08T02:46:12.583Z,75.90
2019-06-08T02:49:02.321Z,75.80
2019-06-08T02:51:14.177Z,75.60
2019-06-08T02:53:43.812Z,75.70
2019-06-08T02:56:14.580Z,74.70
2019-06-08T02:58:44.165Z,74.00
2019-06-08T03:01:15.347Z,74.20
2019-06-08T03:03:45.353Z,74.70
2019-06-08T03:06:15.321Z,74.10
2019-06-08T03:08:47.846Z,72.80
2019-06-08T03:11:19.841Z,74.20
2019-06-08T03:13:50.518Z,74.60
2019-06-08T03:16:19.945Z,73.80
2019-06-08T03:18:49.410Z,73.80
2019-06-08T03:21:18.926Z,75.10
2019-06-08T03:23:49.415Z,75.80
2019-06-08T03:26:19.075Z,77.10
2019-06-08T03:28:48.588Z,76.10
2019-06-08T03:31:18.183Z,75.20
2019-06-08T03:33:54.979Z,72.90
2019-06-08T03:36:18.707Z,72.30
2019-06-08T03:38:48.250Z,69.60
2019-06-08T03:41:18.763Z,70.00
2019-06-08T03:43:48.236Z,69.10
2019-06-08T03:46:17.805Z,68.30
2019-06-08T03:48:47.262Z,68.30
2019-06-08T03:51:16.701Z,67.50
2019-06-08T03:53:48.989Z,67.80
2019-06-08T03:56:18.478Z,67.70
2019-06-08T03:58:48.325Z,64.20
2019-06-08T04:01:18.906Z,65.60
2019-06-08T04:03:51.094Z,65.70
2019-06-08T04:06:20.612Z,63.00
2019-06-08T04:08:50.157Z,64.80
2019-06-08T04:11:19.601Z,66.20
2019-06-08T04:13:50.092Z,64.40
2019-06-08T04:16:21.346Z,63.90
2019-06-08T04:18:50.801Z,64.70
2019-06-08T04:21:20.249Z,64.70
2019-06-08T04:23:50.677Z,64.50
2019-06-08T04:26:21.268Z,64.60
2019-06-08T04:28:50.799Z,64.80
2019-06-08T04:31:20.237Z,66.20
2019-06-08T04:33:50.881Z,65.10
2019-06-08T04:36:20.437Z,64.60
2019-06-08T04:38:50.868Z,65.80
2019-06-08T04:41:20.311Z,64.20
2019-06-08T04:43:50.031Z,65.70
2019-06-08T04:46:19.489Z,66.30
2019-06-08T04:48:50.036Z,65.90
2019-06-08T04:51:20.833Z,66.00
2019-06-08T04:53:50.294Z,61.70
2019-06-08T04:56:19.738Z,62.60
2019-06-08T04:58:51.131Z,63.60
2019-06-08T05:01:20.249Z,63.10
2019-06-08T05:03:50.057Z,62.70
2019-06-08T05:06:19.784Z,63.10
2019-06-08T05:08:49.708Z,61.40
2019-06-08T05:11:20.327Z,62.00
2019-06-08T05:13:49.937Z,61.80
2019-06-08T05:16:19.561Z,61.80
2019-06-08T05:18:49.611Z,61.80
2019-06-08T05:21:20.428Z,59.50
2019-06-08T05:23:58.149Z,61.70
2019-06-08T05:26:20.944Z,61.30
2019-06-08T05:28:50.399Z,60.00
2019-06-08T05:31:19.835Z,62.00
2019-06-08T05:33:49.712Z,63.40
2019-06-08T05:36:20.316Z,63.90
2019-06-08T05:38:50.089Z,62.50
2019-06-08T05:41:23.961Z,62.90
2019-06-08T05:43:51.704Z,62.00
2019-06-08T05:46:21.154Z,61.70
2019-06-08T05:48:50.607Z,61.00
2019-06-08T05:51:20.069Z,60.30
2019-06-08T05:53:50.164Z,60.40
2019-06-08T05:56:20.021Z,59.40
2019-06-08T05:58:50.323Z,60.10
2019-06-08T06:01:20.083Z,62.00
2019-06-08T06:03:51.826Z,62.10
2019-06-08T06:06:20.812Z,60.20
2019-06-08T06:08:50.905Z,62.10
2019-06-08T06:11:20.594Z,62.30
2019-06-08T06:13:51.350Z,62.00
2019-06-08T06:16:21.243Z,62.90
2019-06-08T06:18:52.229Z,62.90
2019-06-08T06:21:21.974Z,63.40
2019-06-08T06:23:51.604Z,63.00
2019-06-08T06:26:22.142Z,61.90
2019-06-08T06:28:51.900Z,60.30
2019-06-08T06:31:21.566Z,61.40
2019-06-08T06:33:52.363Z,60.20
2019-06-08T06:36:22.148Z,61.30
2019-06-08T06:38:52.256Z,63.00
2019-06-08T06:41:21.834Z,62.40
2019-06-08T06:43:52.227Z,62.40
2019-06-08T06:46:21.812Z,62.40
2019-06-08T06:48:52.389Z,59.20
2019-06-08T06:51:26.280Z,59.40
2019-06-08T06:53:53.403Z,56.80
2019-06-08T06:56:22.970Z,58.30
2019-06-08T06:58:53.357Z,56.60
2019-06-08T07:01:23.292Z,57.40
2019-06-08T07:03:54.378Z,57.30
2019-06-08T07:06:23.949Z,57.10
2019-06-08T07:08:54.447Z,54.30
2019-06-08T07:11:24.058Z,54.50
2019-06-08T07:13:55.025Z,54.30
2019-06-08T07:16:24.680Z,53.20
2019-06-08T07:18:54.491Z,53.80
2019-06-08T07:21:24.145Z,51.40
2019-06-08T07:23:54.589Z,51.00
2019-06-08T07:26:24.740Z,52.40
2019-06-08T07:28:55.345Z,50.10
2019-06-08T07:31:25.261Z,47.90
2019-06-08T07:33:55.658Z,47.40
2019-06-08T07:36:25.240Z,48.50
2019-06-08T07:38:55.464Z,48.40
2019-06-08T07:41:25.134Z,49.00
2019-06-08T07:43:54.620Z,50.20
2019-06-08T07:46:24.168Z,51.00
2019-06-08T07:48:54.413Z,47.90
2019-06-08T07:51:25.298Z,50.30
2019-06-08T07:53:56.421Z,51.10
2019-06-08T07:56:25.872Z,53.20
2019-06-08T07:58:55.344Z,52.00
2019-06-08T08:01:35.893Z,52.40
2019-06-08T08:03:58.341Z,51.90
2019-06-08T08:06:30.352Z,53.70
2019-06-08T08:08:59.097Z,50.30
2019-06-08T08:11:28.552Z,50.40
2019-06-08T08:13:59.122Z,52.80
2019-06-08T08:16:28.750Z,51.40
2019-06-08T08:18:59.569Z,52.10
2019-06-08T08:21:29.624Z,52.20
2019-06-08T08:24:01.500Z,54.00
2019-06-08T08:26:34.251Z,53.00
2019-06-08T08:29:03.657Z,49.80
2019-06-08T08:31:33.155Z,49.10
2019-06-08T08:34:05.569Z,51.80
2019-06-08T08:36:33.751Z,49.70
2019-06-08T08:39:04.004Z,49.70
2019-06-08T08:41:33.538Z,50.60
2019-06-08T08:44:04.866Z,50.90
2019-06-08T08:46:34.268Z,52.60
2019-06-08T08:49:09.508Z,49.90
2019-06-08T08:51:37.833Z,49.30
2019-06-08T08:54:08.843Z,52.70
2019-06-08T08:56:39.442Z,50.10
2019-06-08T08:59:10.830Z,51.70
2019-06-08T09:01:39.966Z,52.40
2019-06-08T09:04:09.538Z,54.80
2019-06-08T09:06:39.017Z,53.30
2019-06-08T09:09:09.051Z,53.00
2019-06-08T09:11:41.316Z,53.20
2019-06-08T09:14:13.811Z,50.90
2019-06-08T09:16:40.853Z,52.10
2019-06-08T09:19:10.354Z,51.80
2019-06-08T09:21:39.823Z,52.20
2019-06-08T09:24:09.644Z,53.00
2019-06-08T09:26:39.264Z,53.70
2019-06-08T09:29:11.310Z,51.20
2019-06-08T09:31:39.854Z,51.90
2019-06-08T09:34:14.938Z,53.00
2019-06-08T09:36:40.984Z,52.10
2019-06-08T09:39:12.921Z,51.50
2019-06-08T09:41:41.603Z,42.90
2019-06-08T09:44:11.705Z,45.10
2019-06-08T09:46:41.468Z,48.50
2019-06-08T09:49:12.185Z,49.20
2019-06-08T09:51:41.713Z,48.50
2019-06-08T09:54:12.859Z,45.10
2019-06-08T09:56:42.330Z,46.50
2019-06-08T09:59:14.900Z,45.40
2019-06-08T10:01:42.917Z,45.00
2019-06-08T10:04:12.453Z,44.20
2019-06-08T10:06:41.964Z,42.70
2019-06-08T10:09:11.572Z,40.60
2019-06-08T10:11:41.063Z,39.80
2019-06-08T10:14:12.201Z,40.30
2019-06-08T10:16:41.750Z,43.00
2019-06-08T10:19:11.263Z,41.70
2019-06-08T10:21:43.166Z,41.00
2019-06-08T10:24:12.897Z,37.70
2019-06-08T10:26:42.284Z,37.80
2019-06-08T10:29:11.744Z,36.30
2019-06-08T10:31:43.584Z,35.40
2019-06-08T10:34:12.365Z,34.20
2019-06-08T10:36:41.869Z,35.30
2019-06-08T10:39:12.091Z,33.90
2019-06-08T10:41:41.888Z,34.80
2019-06-08T10:44:13.952Z,35.60
2019-06-08T10:46:42.559Z,37.50
2019-06-08T10:49:14.359Z,36.10
2019-06-08T10:51:43.153Z,35.80
2019-06-08T10:54:12.685Z,31.00
2019-06-08T10:56:42.107Z,32.20
2019-06-08T10:59:12.341Z,32.40
2019-06-08T11:01:42.081Z,31.70
2019-06-08T11:04:11.725Z,31.30
2019-06-08T11:06:41.159Z,33.20
2019-06-08T11:09:13.107Z,35.30
2019-06-08T11:11:41.892Z,35.30
2019-06-08T11:14:13.105Z,35.60
2019-06-08T11:16:42.536Z,32.20
2019-06-08T11:19:13.610Z,31.30
2019-06-08T11:21:43.127Z,31.50
2019-06-08T11:24:21.646Z,30.90
2019-06-08T11:26:43.723Z,32.20
2019-06-08T11:29:13.895Z,30.10
2019-06-08T11:31:43.762Z,32.80
2019-06-08T11:34:13.212Z,29.90
2019-06-08T11:36:42.610Z,30.30
2019-06-08T11:39:12.837Z,30.10
2019-06-08T11:41:42.661Z,30.70
2019-06-08T11:44:14.721Z,29.80
2019-06-08T11:46:43.419Z,34.70
2019-06-08T11:49:15.293Z,27.80
2019-06-08T11:51:47.677Z,26.40
2019-06-08T11:54:29.527Z,26.40
2019-06-08T11:56:49.186Z,24.20
2019-06-08T11:59:19.383Z,25.50
2019-06-08T12:01:50.510Z,27.10
2019-06-08T12:04:20.109Z,26.90
2019-06-08T12:06:49.553Z,28.40
2019-06-08T12:09:19.147Z,26.80
2019-06-08T12:11:48.556Z,25.10
2019-06-08T12:14:18.016Z,26.50
2019-06-08T12:16:48.615Z,25.50
2019-06-08T12:19:20.833Z,27.80
2019-06-08T12:21:49.906Z,26.50
2019-06-08T12:24:19.491Z,28.10
2019-06-08T12:26:52.669Z,29.30
2019-06-08T12:29:20.084Z,27.80
2019-06-08T12:31:49.524Z,26.00
2019-06-08T12:34:19.002Z,25.70
2019-06-08T12:36:48.440Z,23.90
2019-06-08T12:39:19.776Z,24.60
2019-06-08T12:41:48.961Z,26.90
2019-06-08T12:44:20.360Z,24.40
2019-06-08T12:46:49.615Z,25.10
2019-06-08T12:49:20.365Z,25.70
2019-06-08T12:51:51.707Z,27.00
2019-06-08T12:54:21.448Z,27.40
2019-06-08T12:56:50.904Z,26.20
2019-06-08T12:59:22.774Z,28.10
2019-06-08T13:01:51.484Z,26.60
2019-06-08T13:04:23.487Z,28.30
2019-06-08T13:06:52.055Z,28.70
2019-06-08T13:09:21.442Z,28.40
2019-06-08T13:11:50.966Z,28.30
2019-06-08T13:14:21.377Z,30.00
2019-06-08T13:16:53.075Z,27.60
2019-06-08T13:19:21.956Z,29.40
2019-06-08T13:21:51.411Z,27.40
2019-06-08T13:24:20.843Z,27.70
2019-06-08T13:26:50.777Z,25.20
2019-06-08T13:29:22.004Z,25.00
2019-06-08T13:31:51.495Z,23.50
2019-06-08T13:34:24.054Z,23.70
2019-06-08T13:36:53.156Z,25.60
2019-06-08T13:39:23.555Z,26.40
2019-06-08T13:41:53.017Z,25.30
2019-06-08T13:44:22.515Z,26.80
2019-06-08T13:46:51.976Z,25.40
2019-06-08T13:49:25.542Z,25.10
2019-06-08T13:51:52.561Z,26.40
2019-06-08T13:54:23.077Z,25.10
2019-06-08T13:56:53.158Z,26.80
2019-06-08T13:59:26.301Z,29.10
2019-06-08T14:01:53.683Z,28.50
2019-06-08T14:04:23.752Z,28.90
2019-06-08T14:06:53.640Z,28.80
2019-06-08T14:09:24.997Z,29.70
2019-06-08T14:11:54.586Z,30.90
2019-06-08T14:14:24.321Z,31.20
2019-06-08T14:16:55.151Z,29.80
2019-06-08T14:19:25.831Z,28.10
2019-06-08T14:21:55.552Z,28.20
2019-06-08T14:24:29.755Z,27.60
2019-06-08T14:26:58.297Z,28.80
2019-06-08T14:29:28.857Z,29.60
2019-06-08T14:31:58.348Z,31.60
2019-06-08T14:34:29.487Z,34.90
2019-06-08T14:36:59.847Z,31.60
2019-06-08T14:39:31.544Z,31.30
2019-06-08T14:42:00.445Z,29.70
2019-06-08T14:44:32.105Z,28.40
2019-06-08T14:47:02.811Z,29.90
2019-06-08T14:49:34.969Z,28.60
2019-06-08T14:52:03.324Z,29.60
2019-06-08T14:54:35.022Z,27.80
2019-06-08T14:57:03.982Z,26.30
2019-06-08T14:59:33.423Z,28.30
2019-06-08T15:02:03.230Z,31.90
2019-06-08T15:04:36.476Z,32.60
2019-06-08T15:07:03.960Z,31.10
2019-06-08T15:09:34.609Z,30.40
2019-06-08T15:12:04.514Z,29.70
2019-06-08T15:14:35.450Z,29.20
2019-06-08T15:17:05.243Z,26.00
2019-06-08T15:19:34.743Z,30.00
2019-06-08T15:22:05.832Z,29.50
2019-06-08T15:24:35.413Z,28.80
2019-06-08T15:27:04.936Z,29.50
2019-06-08T15:29:34.368Z,29.70
2019-06-08T15:32:03.955Z,29.10
2019-06-08T15:34:33.404Z,27.90
2019-06-08T15:37:02.860Z,30.00
2019-06-08T15:39:34.182Z,28.70
2019-06-08T15:42:04.078Z,26.30
2019-06-08T15:44:33.949Z,25.90
2019-06-08T15:47:03.516Z,25.70
2019-06-08T15:49:33.919Z,26.40
2019-06-08T15:52:03.495Z,21.70
2019-06-08T15:54:36.278Z,23.70
2019-06-08T15:57:04.089Z,22.80
2019-06-08T15:59:38.746Z,22.50
2019-06-08T16:02:04.851Z,25.90
2019-06-08T16:04:34.313Z,25.30
2019-06-08T16:07:04.378Z,25.70
2019-06-08T16:09:34.468Z,23.50
2019-06-08T16:12:04.522Z,25.20
2019-06-08T16:14:34.992Z,22.60
2019-06-08T16:17:04.592Z,23.80
2019-06-08T16:19:34.045Z,24.30
2019-06-08T16:22:04.595Z,23.60
2019-06-08T16:24:34.183Z,22.40
2019-06-08T16:27:03.633Z,22.20
2019-06-08T16:29:33.398Z,24.30
2019-06-08T16:32:02.936Z,25.10
2019-06-08T16:34:33.597Z,23.90
2019-06-08T16:37:03.237Z,23.50
2019-06-08T16:39:32.893Z,21.90
2019-06-08T16:42:02.358Z,22.60
2019-06-08T16:44:34.170Z,24.40
2019-06-08T16:47:04.888Z,22.50
2019-06-08T16:49:35.375Z,23.10
2019-06-08T16:52:04.991Z,24.90
2019-06-08T16:54:35.054Z,25.70
2019-06-08T16:57:09.872Z,23.10
2019-06-08T16:59:36.645Z,24.70
2019-06-08T17:02:06.294Z,24.50
2019-06-08T17:04:37.113Z,24.70
2019-06-08T17:07:06.730Z,24.50
2019-06-08T17:09:36.264Z,24.20
2019-06-08T17:12:05.773Z,24.10
2019-06-08T17:14:36.366Z,25.30
2019-06-08T17:17:05.905Z,23.90
2019-06-08T17:19:36.241Z,24.10
2019-06-08T17:22:05.695Z,24.20
2019-06-08T17:24:36.548Z,25.10
2019-06-08T17:27:06.353Z,25.90
2019-06-08T17:29:36.823Z,26.00
2019-06-08T17:32:06.482Z,26.10
2019-06-08T17:34:36.598Z,26.10
2019-06-08T17:37:06.150Z,25.20
2019-06-08T17:39:35.895Z,24.90
2019-06-08T17:42:05.512Z,25.90
2019-06-08T17:44:36.395Z,26.10
2019-06-08T17:47:05.909Z,26.40
2019-06-08T17:49:36.682Z,29.10
2019-06-08T17:52:06.308Z,29.80
2019-06-08T17:54:36.755Z,32.60
2019-06-08T17:57:06.324Z,35.10
2019-06-08T17:59:35.802Z,37.40
2019-06-08T18:02:08.050Z,36.40
2019-06-08T18:04:38.380Z,38.40
2019-06-08T18:07:07.662Z,39.70
2019-06-08T18:09:39.226Z,41.60
2019-06-08T18:12:08.243Z,43.30
2019-06-08T18:14:40.395Z,43.90
2019-06-08T18:17:08.830Z,44.90
2019-06-08T18:19:41.887Z,45.50
2019-06-08T18:22:15.424Z,46.80
2019-06-08T18:24:42.323Z,47.10
2019-06-08T18:27:12.082Z,48.10
2019-06-08T18:29:42.944Z,50.80
2019-06-08T18:32:12.599Z,52.30
2019-06-08T18:34:43.249Z,52.80
2019-06-08T18:37:13.419Z,53.90
2019-06-08T18:39:44.135Z,55.30
2019-06-08T18:42:14.023Z,56.10
2019-06-08T18:44:44.476Z,58.50
2019-06-08T18:47:14.664Z,61.70
2019-06-08T18:49:45.315Z,63.80
2019-06-08T18:52:17.463Z,65.30
2019-06-08T18:54:48.775Z,66.30
2019-06-08T18:57:17.708Z,67.40
2019-06-08T18:59:51.553Z,68.00
2019-06-08T19:02:18.573Z,68.10
2019-06-08T19:04:50.843Z,67.90
2019-06-08T19:07:20.418Z,68.70
2019-06-08T19:09:50.014Z,69.40
2019-06-08T19:12:19.805Z,70.80
2019-06-08T19:14:52.176Z,72.60
2019-06-08T19:17:21.178Z,72.90
2019-06-08T19:19:52.413Z,72.60
2019-06-08T19:22:22.068Z,72.90
2019-06-08T19:24:51.509Z,75.00
2019-06-08T19:27:21.105Z,76.60
2019-06-08T19:29:51.649Z,78.60
2019-06-08T19:32:22.543Z,79.60
2019-06-08T19:34:54.420Z,79.20
2019-06-08T19:37:24.131Z,78.50
2019-06-08T19:39:53.571Z,77.60
2019-06-08T19:42:35.550Z,77.80
2019-06-08T19:45:01.292Z,78.10
2019-06-08T19:47:27.628Z,77.60
2019-06-08T19:49:57.784Z,77.10
2019-06-08T19:52:27.585Z,77.70
2019-06-08T19:54:58.138Z,78.70
2019-06-08T19:57:28.346Z,78.60
2019-06-08T19:59:59.994Z,79.00
2019-06-08T20:02:28.942Z,79.60
2019-06-08T20:04:58.393Z,79.40
2019-06-08T20:07:28.067Z,78.80
2019-06-08T20:09:58.555Z,79.00
2019-06-08T20:12:28.277Z,78.70
2019-06-08T20:14:59.539Z,78.00
2019-06-08T20:17:29.407Z,77.80
2019-06-08T20:19:58.932Z,77.60
2019-06-08T20:22:28.544Z,78.30
2019-06-08T20:24:58.065Z,78.30
2019-06-08T20:27:27.781Z,78.30
2019-06-08T20:29:58.197Z,78.60
2019-06-08T20:32:28.300Z,81.40
2019-06-08T20:34:57.895Z,81.80
2019-06-08T20:37:28.520Z,82.80
2019-06-08T20:40:09.705Z,82.90
2019-06-08T20:42:29.116Z,82.30
2019-06-08T20:44:58.572Z,82.00
2019-06-08T20:47:28.091Z,81.00
2019-06-08T20:49:58.604Z,80.20
2019-06-08T20:52:28.219Z,80.00
2019-06-08T20:54:58.228Z,80.10
2019-06-08T20:57:27.864Z,80.00
2019-06-08T20:59:58.055Z,79.70
2019-06-08T21:02:30.650Z,79.30
2019-06-08T21:05:00.153Z,79.20
2019-06-08T21:07:29.613Z,79.10
2019-06-08T21:09:59.126Z,78.40
2019-06-08T21:12:28.658Z,79.60
2019-06-08T21:14:58.156Z,78.90
2019-06-08T21:17:27.739Z,79.00
2019-06-08T21:19:57.887Z,77.50
2019-06-08T21:22:27.856Z,77.60
2019-06-08T21:24:59.865Z,77.50
2019-06-08T21:27:28.409Z,77.30
2019-06-08T21:30:02.053Z,77.50
2019-06-08T21:32:28.917Z,78.00
2019-06-08T21:35:00.187Z,77.60
2019-06-08T21:37:29.495Z,77.10
2019-06-08T21:40:03.863Z,78.10
2019-06-08T21:42:30.010Z,77.30
2019-06-08T21:45:01.562Z,78.10
2019-06-08T21:47:30.544Z,78.20
2019-06-08T21:50:00.498Z,79.00
2019-06-08T21:52:30.100Z,79.30
2019-06-08T21:55:00.648Z,79.60
2019-06-08T21:57:30.205Z,80.10
2019-06-08T22:00:21.983Z,80.40
2019-06-08T22:02:32.430Z,80.50
2019-06-08T22:05:04.675Z,80.60
2019-06-08T22:07:34.352Z,80.10
2019-06-08T22:10:07.415Z,79.30
2019-06-08T22:12:40.245Z,78.90
2019-06-08T22:15:10.160Z,79.80
2019-06-08T22:17:39.760Z,80.70
2019-06-08T22:20:09.493Z,81.50
2019-06-08T22:22:38.959Z,82.20
2019-06-08T22:25:08.561Z,82.20
2019-06-08T22:27:38.299Z,82.50
2019-06-08T22:30:15.532Z,83.20
2019-06-08T22:32:40.451Z,84.30
2019-06-08T22:35:10.043Z,84.90
2019-06-08T22:37:39.483Z,84.50
2019-06-08T22:40:09.391Z,83.30
2019-06-08T22:42:38.820Z,82.50
2019-06-08T22:45:08.529Z,82.20
2019-06-08T22:47:38.795Z,82.10
2019-06-08T22:50:09.919Z,81.80
2019-06-08T22:52:59.787Z,81.60
2019-06-08T22:55:29.790Z,82.10
2019-06-08T22:58:01.411Z,82.00
2019-06-08T23:00:30.373Z,81.70
2019-06-08T23:03:03.528Z,82.00
2019-06-08T23:05:30.959Z,81.60
2019-06-08T23:08:04.322Z,81.40
2019-06-08T23:10:31.481Z,81.00
2019-06-08T23:13:02.491Z,80.60
2019-06-08T23:15:32.002Z,80.80
2019-06-08T23:18:04.032Z,80.80
2019-06-08T23:20:32.519Z,80.50
2019-06-08T23:23:03.035Z,81.20
2019-06-08T23:25:33.062Z,81.20
2019-06-08T23:28:04.813Z,82.10
2019-06-08T23:30:34.733Z,83.30
2019-06-08T23:33:05.710Z,83.80
2019-06-08T23:35:56.804Z,84.90
2019-06-08T23:38:08.099Z,86.30
2019-06-08T23:40:37.947Z,86.80
2019-06-08T23:43:08.282Z,87.80
2019-06-08T23:45:38.150Z,86.40
2019-06-08T23:48:08.711Z,85.20
2019-06-08T23:50:38.271Z,85.10
2019-06-08T23:53:10.755Z,84.50
2019-06-08T23:55:39.020Z,83.90
2019-06-08T23:58:11.161Z,84.00
